createdAt,value
2022-08-26T00:03:00.269Z,100264.34
2022-08-26T00:06:04.274Z,100258.34
2022-08-26T00:09:09.058Z,100250.84
2022-08-26T00:12:13.591Z,100255.22
2022-08-26T00:15:20.210Z,100251.00
2022-08-26T00:18:24.930Z,100249.19
2022-08-26T00:21:29.945Z,100241.13
2022-08-26T00:24:34.181Z,100247.06
2022-08-26T00:27:39.616Z,100238.56
2022-08-26T00:30:47.955Z,100239.81
2022-08-26T00:33:55.598Z,100244.44
2022-08-26T00:37:00.403Z,100243.66
2022-08-26T00:40:07.636Z,100230.97
2022-08-26T00:43:16.011Z,100237.38
2022-08-26T00:46:25.265Z,100220.03
2022-08-26T00:49:39.621Z,100227.19
2022-08-26T00:52:44.729Z,100227.41
2022-08-26T00:56:01.520Z,100224.97
2022-08-26T00:59:08.638Z,100221.59
2022-08-26T01:02:21.151Z,100230.66
2022-08-26T01:05:25.692Z,100229.03
2022-08-26T01:08:30.034Z,100231.84
2022-08-26T01:11:34.768Z,100220.69
2022-08-26T01:14:40.986Z,100225.84
2022-08-26T01:17:50.812Z,100229.19
2022-08-26T01:21:24.970Z,100229.97
2022-08-26T01:24:30.799Z,100227.84
2022-08-26T01:27:35.367Z,100224.16
2022-08-26T01:30:40.837Z,100226.75
2022-08-26T01:33:52.392Z,100232.16
2022-08-26T01:37:19.764Z,100219.69
2022-08-26T01:40:29.673Z,100223.00
2022-08-26T01:43:34.345Z,100233.78
2022-08-26T01:46:38.557Z,100235.03
2022-08-26T01:49:44.604Z,100228.63
2022-08-26T01:52:54.693Z,100232.91
2022-08-26T01:56:02.229Z,100225.97
2022-08-26T01:59:10.909Z,100232.47
2022-08-26T02:02:17.129Z,100232.47
2022-08-26T02:05:22.100Z,100232.25
2022-08-26T02:08:32.646Z,100234.56
2022-08-26T02:11:37.009Z,100233.22
2022-08-26T02:14:50.135Z,100232.47
2022-08-26T02:17:55.615Z,100236.28
2022-08-26T02:21:01.824Z,100232.25
2022-08-26T02:24:13.116Z,100225.72
2022-08-26T02:27:19.558Z,100227.00
2022-08-26T02:30:26.867Z,100227.00
2022-08-26T02:33:32.027Z,100227.00
2022-08-26T02:36:36.753Z,100225.59
2022-08-26T02:39:41.940Z,100215.28
2022-08-26T02:42:46.229Z,100215.72
2022-08-26T02:45:50.252Z,100213.84
2022-08-26T02:48:54.868Z,100208.94
2022-08-26T02:52:02.005Z,100215.31
2022-08-26T02:55:07.066Z,100210.63
2022-08-26T02:58:11.405Z,100210.28
2022-08-26T03:01:25.624Z,100204.69
2022-08-26T03:04:31.066Z,100206.16
2022-08-26T03:07:37.948Z,100198.88
2022-08-26T03:10:41.681Z,100199.91
2022-08-26T03:13:45.835Z,100189.59
2022-08-26T03:16:52.353Z,100197.81
2022-08-26T03:19:57.279Z,100195.44
2022-08-26T03:23:01.280Z,100189.75
2022-08-26T03:26:07.152Z,100183.72
2022-08-26T03:29:33.282Z,100186.75
2022-08-26T03:32:37.450Z,100185.19
2022-08-26T03:35:43.560Z,100184.63
2022-08-26T03:38:47.253Z,100180.97
2022-08-26T03:41:52.397Z,100187.13
2022-08-26T03:44:57.218Z,100188.13
2022-08-26T03:48:01.092Z,100191.81
2022-08-26T03:51:12.480Z,100186.13
2022-08-26T03:54:16.352Z,100187.13
2022-08-26T03:57:20.753Z,100186.78
2022-08-26T04:00:26.912Z,100192.19
2022-08-26T04:03:49.413Z,100185.47
2022-08-26T04:06:58.317Z,100188.97
2022-08-26T04:10:02.496Z,100180.09
2022-08-26T04:13:06.720Z,100182.94
2022-08-26T04:16:10.853Z,100193.47
2022-08-26T04:19:16.027Z,100195.03
2022-08-26T04:22:24.184Z,100193.69
2022-08-26T04:25:29.308Z,100191.09
2022-08-26T04:28:33.339Z,100192.38
2022-08-26T04:31:38.127Z,100198.28
2022-08-26T04:34:42.044Z,100192.38
2022-08-26T04:37:45.853Z,100195.50
2022-08-26T04:40:49.514Z,100197.81
2022-08-26T04:43:53.561Z,100187.41
2022-08-26T04:46:58.598Z,100182.78
2022-08-26T04:50:03.062Z,100184.69
2022-08-26T04:53:07.438Z,100186.28
2022-08-26T04:56:12.377Z,100188.84
2022-08-26T04:59:18.128Z,100178.06
2022-08-26T05:02:22.557Z,100186.66
2022-08-26T05:05:27.464Z,100183.63
2022-08-26T05:08:31.429Z,100188.31
2022-08-26T05:11:36.087Z,100192.47
2022-08-26T05:14:41.395Z,100189.97
2022-08-26T05:17:45.205Z,100196.78
2022-08-26T05:20:53.885Z,100192.25
2022-08-26T05:23:58.943Z,100184.13
2022-08-26T05:27:03.562Z,100196.13
2022-08-26T05:30:15.697Z,100197.97
2022-08-26T05:33:20.102Z,100196.25
2022-08-26T05:36:27.425Z,100197.91
2022-08-26T05:39:33.027Z,100200.06
2022-08-26T05:42:36.878Z,100199.69
2022-08-26T05:45:49.121Z,100205.47
2022-08-26T05:48:55.165Z,100197.91
2022-08-26T05:51:59.139Z,100201.63
2022-08-26T05:55:04.511Z,100202.50
2022-08-26T05:58:08.438Z,100205.59
2022-08-26T06:01:17.655Z,100199.44
2022-08-26T06:04:23.005Z,100199.97
2022-08-26T06:07:50.319Z,100201.38
2022-08-26T06:10:59.186Z,100190.31
2022-08-26T06:14:05.338Z,100190.88
2022-08-26T06:17:09.606Z,100190.38
2022-08-26T06:20:14.105Z,100199.28
2022-08-26T06:23:37.292Z,100195.94
2022-08-26T06:26:53.957Z,100203.78
2022-08-26T06:29:57.760Z,100200.22
2022-08-26T06:33:01.743Z,100193.84
2022-08-26T06:36:06.764Z,100198.84
2022-08-26T06:39:13.671Z,100198.22
2022-08-26T06:42:18.248Z,100199.59
2022-08-26T06:45:22.694Z,100201.94
2022-08-26T06:48:26.895Z,100204.34
2022-08-26T06:51:34.566Z,100209.31
2022-08-26T06:54:43.010Z,100208.31
2022-08-26T06:57:47.295Z,100208.09
2022-08-26T07:00:51.624Z,100206.53
2022-08-26T07:03:58.928Z,100209.25
2022-08-26T07:07:03.492Z,100203.13
2022-08-26T07:10:08.643Z,100198.28
2022-08-26T07:13:12.644Z,100197.47
2022-08-26T07:16:18.126Z,100193.13
2022-08-26T07:19:29.950Z,100196.22
2022-08-26T07:22:37.019Z,100197.03
2022-08-26T07:25:42.212Z,100204.59
2022-08-26T07:28:50.546Z,100207.84
2022-08-26T07:31:58.269Z,100199.81
2022-08-26T07:35:02.137Z,100201.97
2022-08-26T07:38:06.379Z,100203.09
2022-08-26T07:41:13.273Z,100208.38
2022-08-26T07:44:17.592Z,100210.22
2022-08-26T07:47:25.167Z,100206.88
2022-08-26T07:50:48.864Z,100210.03
2022-08-26T07:53:53.498Z,100206.91
2022-08-26T07:56:57.225Z,100201.69
2022-08-26T08:00:02.762Z,100203.00
2022-08-26T08:03:07.179Z,100195.22
2022-08-26T08:06:12.248Z,100193.94
2022-08-26T08:09:16.442Z,100196.78
2022-08-26T08:12:20.882Z,100196.78
2022-08-26T08:15:27.802Z,100204.06
2022-08-26T08:18:32.029Z,100197.00
2022-08-26T08:21:36.207Z,100193.88
2022-08-26T08:24:40.336Z,100191.47
2022-08-26T08:27:45.229Z,100195.69
2022-08-26T08:30:49.756Z,100191.31
2022-08-26T08:33:53.920Z,100190.06
2022-08-26T08:36:58.232Z,100178.75
2022-08-26T08:40:04.351Z,100178.09
2022-08-26T08:43:14.738Z,100182.00
2022-08-26T08:46:20.100Z,100175.59
2022-08-26T08:49:25.875Z,100164.13
2022-08-26T08:52:35.287Z,100163.75
2022-08-26T08:55:49.771Z,100160.34
2022-08-26T08:59:15.185Z,100160.53
2022-08-26T09:03:01.649Z,100158.69
2022-08-26T09:06:16.905Z,100155.19
2022-08-26T09:09:32.844Z,100151.25
2022-08-26T09:12:37.155Z,100144.59
2022-08-26T09:15:54.575Z,100148.63
2022-08-26T09:19:41.329Z,100148.22
2022-08-26T09:22:45.920Z,100142.88
2022-08-26T09:25:49.997Z,100146.94
2022-08-26T09:28:58.459Z,100140.94
2022-08-26T09:32:25.015Z,100139.19
2022-08-26T09:35:52.230Z,100137.34
2022-08-26T09:38:56.140Z,100136.31
2022-08-26T09:42:19.105Z,100138.31
2022-08-26T09:45:28.310Z,100133.91
2022-08-26T09:48:40.520Z,100131.19
2022-08-26T09:51:45.335Z,100126.66
2022-08-26T09:55:02.245Z,100119.81
2022-08-26T09:58:09.371Z,100111.59
2022-08-26T10:01:45.914Z,100111.66
2022-08-26T10:04:53.976Z,100101.66
2022-08-26T10:07:59.565Z,100096.44
2022-08-26T10:11:26.555Z,100089.16
2022-08-26T10:14:49.818Z,100084.81
2022-08-26T10:18:24.686Z,100077.47
2022-08-26T10:21:38.926Z,100067.34
2022-08-26T10:24:49.845Z,100062.06
2022-08-26T10:28:09.103Z,100051.28
2022-08-26T10:31:27.552Z,100050.56
2022-08-26T10:34:33.279Z,100044.91
2022-08-26T10:37:41.553Z,100043.09
2022-08-26T10:41:09.752Z,100034.13
2022-08-26T10:44:18.100Z,100034.34
2022-08-26T10:47:31.444Z,100022.38
2022-08-26T10:50:41.627Z,100012.59
2022-08-26T10:53:55.775Z,100000.44
2022-08-26T10:57:12.729Z,99985.25
2022-08-26T11:00:41.522Z,99983.88
2022-08-26T11:04:45.759Z,99992.22
2022-08-26T11:08:12.902Z,99981.06
2022-08-26T11:11:41.933Z,99974.50
2022-08-26T11:14:53.393Z,99967.78
2022-08-26T11:18:10.035Z,99968.66
2022-08-26T11:21:49.573Z,99968.03
2022-08-26T11:24:54.704Z,99962.16
2022-08-26T11:28:00.557Z,99953.16
2022-08-26T11:31:08.766Z,99951.19
2022-08-26T11:34:14.066Z,99949.22
2022-08-26T11:40:33.764Z,99954.16
2022-08-26T11:43:39.804Z,99954.84
2022-08-26T11:46:52.747Z,99947.53
2022-08-26T11:50:17.043Z,99946.31
2022-08-26T11:53:22.548Z,99941.84
2022-08-26T11:56:33.916Z,99943.69
2022-08-26T11:59:40.163Z,99945.78
2022-08-26T12:02:44.694Z,99945.13
2022-08-26T12:05:52.069Z,99949.53
2022-08-26T12:09:01.497Z,99968.91
2022-08-26T12:12:15.236Z,99963.03
2022-08-26T12:15:22.668Z,99963.50
2022-08-26T12:18:31.419Z,99964.38
2022-08-26T12:21:35.480Z,99967.81
2022-08-26T12:24:45.527Z,99969.28
2022-08-26T12:27:53.743Z,99970.28
2022-08-26T12:31:01.015Z,99978.53
2022-08-26T12:34:17.685Z,99976.53
2022-08-26T12:37:22.514Z,99973.53
2022-08-26T12:40:43.816Z,99975.34
2022-08-26T12:43:48.185Z,99982.72
2022-08-26T12:46:52.328Z,99993.69
2022-08-26T12:50:09.959Z,99995.63
2022-08-26T12:53:22.407Z,99995.75
2022-08-26T12:56:29.162Z,99986.97
2022-08-26T12:59:32.931Z,99996.78
2022-08-26T13:02:38.637Z,100003.06
2022-08-26T13:05:42.515Z,100012.41
2022-08-26T13:09:02.633Z,100011.38
2022-08-26T13:12:06.482Z,100000.50
2022-08-26T13:15:10.480Z,99996.88
2022-08-26T13:18:14.410Z,99991.69
2022-08-26T13:21:24.878Z,99995.56
2022-08-26T13:24:34.134Z,99990.13
2022-08-26T13:27:38.242Z,99991.41
2022-08-26T13:30:45.723Z,99997.34
2022-08-26T13:33:49.724Z,100005.38
2022-08-26T13:36:56.259Z,100006.41
2022-08-26T13:40:00.343Z,100012.41
2022-08-26T13:43:04.767Z,100018.66
2022-08-26T13:46:09.187Z,100014.22
2022-08-26T13:49:13.644Z,100011.88
2022-08-26T13:52:17.887Z,100016.03
2022-08-26T13:55:34.417Z,100011.38
2022-08-26T13:58:38.068Z,100021.22
2022-08-26T14:01:42.192Z,100026.16
2022-08-26T14:04:46.296Z,100033.69
2022-08-26T14:07:50.276Z,100044.03
2022-08-26T14:10:54.369Z,100046.88
2022-08-26T14:13:58.670Z,100061.91
2022-08-26T14:17:03.211Z,100052.56
2022-08-26T14:20:09.701Z,100052.31
2022-08-26T14:23:14.561Z,100053.63
2022-08-26T14:26:27.948Z,100044.28
2022-08-26T14:29:33.778Z,100033.91
2022-08-26T14:32:42.823Z,100023.56
2022-08-26T14:35:47.184Z,100009.03
2022-08-26T14:38:54.497Z,99997.88
2022-08-26T14:41:59.317Z,99984.69
2022-08-26T14:45:06.698Z,99966.78
2022-08-26T14:48:11.115Z,99953.06
2022-08-26T14:51:15.071Z,99942.44
2022-08-26T14:54:20.184Z,99937.25
2022-08-26T14:57:24.494Z,99925.59
2022-08-26T15:00:29.435Z,99918.34
2022-08-26T15:03:33.554Z,99911.91
2022-08-26T15:06:38.168Z,99902.53
2022-08-26T15:09:42.808Z,99902.53
2022-08-26T15:12:47.351Z,99890.88
2022-08-26T15:15:51.382Z,99896.81
2022-08-26T15:18:56.431Z,99898.66
2022-08-26T15:22:00.254Z,99893.19
2022-08-26T15:25:08.363Z,99895.03
2022-08-26T15:28:12.350Z,99895.75
2022-08-26T15:31:16.849Z,99899.94
2022-08-26T15:34:21.045Z,99902.50
2022-08-26T15:37:25.659Z,99903.50
2022-08-26T15:40:29.557Z,99905.56
2022-08-26T15:43:33.588Z,99909.16
2022-08-26T15:46:39.125Z,99918.47
2022-08-26T15:49:43.246Z,99921.59
2022-08-26T15:52:47.882Z,99931.44
2022-08-26T15:55:54.757Z,99936.44
2022-08-26T15:59:01.346Z,99942.13
2022-08-26T16:02:05.745Z,99928.91
2022-08-26T16:05:10.225Z,99928.66
2022-08-26T16:08:15.116Z,99923.47
2022-08-26T16:11:19.852Z,99932.78
2022-08-26T16:14:24.336Z,99927.03
2022-08-26T16:17:28.297Z,99926.53
2022-08-26T16:20:34.428Z,99932.50
2022-08-26T16:23:38.606Z,99933.03
2022-08-26T16:26:44.077Z,99939.03
2022-08-26T16:29:48.751Z,99940.56
2022-08-26T16:32:52.527Z,99939.53
2022-08-26T16:35:56.295Z,99939.03
2022-08-26T16:39:00.390Z,99938.50
2022-08-26T16:42:04.620Z,99949.44
2022-08-26T16:45:09.291Z,99951.78
2022-08-26T16:48:13.447Z,99960.56
2022-08-26T16:51:19.184Z,99963.16
2022-08-26T16:54:23.008Z,99963.44
2022-08-26T16:57:27.154Z,99959.03
2022-08-26T17:00:33.002Z,99955.63
2022-08-26T17:03:37.381Z,99959.03
2022-08-26T17:06:41.577Z,99956.94
2022-08-26T17:09:45.448Z,99952.81
2022-08-26T17:12:50.694Z,99952.81
2022-08-26T17:15:58.402Z,99959.28
2022-08-26T17:19:05.706Z,99960.59
2022-08-26T17:22:10.601Z,99959.03
2022-08-26T17:25:19.285Z,99961.34
2022-08-26T17:28:23.479Z,99956.94
2022-08-26T17:31:27.739Z,99956.94
2022-08-26T17:34:32.453Z,99944.50
2022-08-26T17:37:36.915Z,99944.00
2022-08-26T17:40:41.783Z,99941.13
2022-08-26T17:43:45.898Z,99944.25
2022-08-26T17:46:50.410Z,99936.19
2022-08-26T17:49:54.230Z,99936.44
2022-08-26T17:52:58.441Z,99943.94
2022-08-26T17:56:08.968Z,99942.91
2022-08-26T17:59:13.478Z,99949.09
2022-08-26T18:02:17.641Z,99950.91
2022-08-26T18:05:21.703Z,99937.94
2022-08-26T18:08:25.560Z,99943.34
2022-08-26T18:11:30.097Z,99937.13
2022-08-26T18:14:34.306Z,99938.13
2022-08-26T18:17:39.251Z,99936.59
2022-08-26T18:20:45.129Z,99933.97
2022-08-26T18:23:50.505Z,99921.81
2022-08-26T18:26:54.398Z,99926.69
2022-08-26T18:29:58.308Z,99938.59
2022-08-26T18:33:03.023Z,99947.13
2022-08-26T18:36:07.392Z,99948.66
2022-08-26T18:39:13.391Z,99942.69
2022-08-26T18:42:18.065Z,99943.75
2022-08-26T18:45:23.166Z,99938.84
2022-08-26T18:48:27.254Z,99932.84
2022-08-26T18:51:33.613Z,99935.97
2022-08-26T18:54:37.817Z,99935.44
2022-08-26T18:57:41.849Z,99939.56
2022-08-26T19:00:45.960Z,99949.91
2022-08-26T19:03:50.395Z,99952.50
2022-08-26T19:06:54.409Z,99961.78
2022-08-26T19:09:58.796Z,99957.63
2022-08-26T19:13:03.505Z,99967.19
2022-08-26T19:16:19.423Z,99969.47
2022-08-26T19:19:24.076Z,99982.41
2022-08-26T19:22:27.993Z,99987.84
2022-08-26T19:25:32.237Z,99994.56
2022-08-26T19:28:37.127Z,99995.09
2022-08-26T19:31:42.173Z,99999.72
2022-08-26T19:34:48.453Z,100005.91
2022-08-26T19:37:52.836Z,100000.72
2022-08-26T19:40:58.874Z,100001.72
2022-08-26T19:44:04.142Z,100009.50
2022-08-26T19:47:09.899Z,100002.25
2022-08-26T19:50:15.777Z,100001.72
2022-08-26T19:53:19.938Z,100000.72
2022-08-26T19:56:25.204Z,100001.97
2022-08-26T19:59:29.799Z,99993.69
2022-08-26T20:02:36.589Z,99994.44
2022-08-26T20:05:41.407Z,99990.78
2022-08-26T20:08:46.133Z,99990.78
2022-08-26T20:11:50.918Z,99989.22
2022-08-26T20:14:55.588Z,99988.44
2022-08-26T20:17:59.815Z,99983.25
2022-08-26T20:21:22.723Z,99990.72
2022-08-26T20:24:27.757Z,99993.84
2022-08-26T20:27:38.307Z,100000.56
2022-08-26T20:30:43.193Z,99994.63
2022-08-26T20:33:48.156Z,99991.97
2022-08-26T20:36:52.565Z,100005.94
2022-08-26T20:39:56.752Z,100003.53
2022-08-26T20:43:01.122Z,100002.00
2022-08-26T20:46:08.317Z,100013.06
2022-08-26T20:49:20.983Z,100006.28
2022-08-26T20:52:25.194Z,100000.53
2022-08-26T20:55:29.659Z,100008.28
2022-08-26T20:58:34.626Z,100007.25
2022-08-26T21:01:42.048Z,100005.16
2022-08-26T21:04:47.343Z,100001.81
2022-08-26T21:07:51.867Z,99996.41
2022-08-26T21:10:57.111Z,100009.06
2022-08-26T21:14:06.706Z,100008.25
2022-08-26T21:17:20.005Z,100004.91
2022-08-26T21:20:24.131Z,99998.16
2022-08-26T21:23:29.363Z,99995.56
2022-08-26T21:26:33.264Z,99994.56
2022-08-26T21:29:37.452Z,99992.22
2022-08-26T21:32:42.066Z,99992.44
2022-08-26T21:35:53.639Z,99997.09
2022-08-26T21:38:59.035Z,99993.72
2022-08-26T21:42:03.203Z,99999.94
2022-08-26T21:45:07.800Z,100015.38
2022-08-26T21:48:11.964Z,100015.88
2022-08-26T21:51:18.189Z,100019.50
2022-08-26T21:54:22.620Z,100021.53
2022-08-26T21:57:27.928Z,100021.50
2022-08-26T22:00:32.163Z,100012.91
2022-08-26T22:03:47.022Z,100005.66
2022-08-26T22:06:54.287Z,100010.25
2022-08-26T22:09:58.666Z,100000.13
2022-08-26T22:13:02.935Z,100008.06
2022-08-26T22:16:07.970Z,100010.59
2022-08-26T22:19:13.729Z,100012.78
2022-08-26T22:22:21.008Z,100011.69
2022-08-26T22:25:25.582Z,100016.44
2022-08-26T22:28:29.694Z,100005.78
2022-08-26T22:31:36.960Z,100006.78
2022-08-26T22:34:42.789Z,100004.22
2022-08-26T22:37:46.955Z,100007.81
2022-08-26T22:40:57.672Z,100001.59
2022-08-26T22:44:02.916Z,100007.69
2022-08-26T22:47:07.256Z,100007.66
2022-08-26T22:50:11.255Z,100024.59
2022-08-26T22:53:16.679Z,100023.75
2022-08-26T22:56:21.389Z,100024.78
2022-08-26T22:59:25.330Z,100025.00
2022-08-26T23:02:29.301Z,100019.84
2022-08-26T23:05:33.088Z,100022.66
2022-08-26T23:08:38.800Z,100008.22
2022-08-26T23:11:43.733Z,100005.06
2022-08-26T23:14:48.922Z,99989.59
2022-08-26T23:18:09.118Z,99994.75
2022-08-26T23:21:12.957Z,99984.44
2022-08-26T23:24:17.425Z,99984.44
2022-08-26T23:27:21.429Z,99981.88
2022-08-26T23:30:27.873Z,99977.72
2022-08-26T23:33:52.132Z,99973.59
2022-08-26T23:36:56.937Z,99986.22
2022-08-26T23:40:08.440Z,99986.50
2022-08-26T23:43:12.452Z,99987.03
2022-08-26T23:46:16.591Z,99977.41
2022-08-26T23:49:20.642Z,99975.56
2022-08-26T23:52:43.562Z,99970.41
2022-08-26T23:55:49.649Z,99970.41
2022-08-26T23:58:54.737Z,99973.03
